createdAt,value
2017-11-20T00:00:50.621Z,12.50
2017-11-20T00:03:18.866Z,14.23
2017-11-20T00:05:46.356Z,7.97
2017-11-20T00:08:13.852Z,10.10
2017-11-20T00:10:42.108Z,9.50
2017-11-20T00:13:09.593Z,10.80
2017-11-20T00:15:37.852Z,10.77
2017-11-20T00:18:05.329Z,8.43
2017-11-20T00:20:32.832Z,8.50
2017-11-20T00:23:01.077Z,12.27
2017-11-20T00:25:28.581Z,7.30
2017-11-20T00:27:56.056Z,14.63
2017-11-20T00:30:24.320Z,8.70
2017-11-20T00:32:51.798Z,10.40
2017-11-20T00:35:19.300Z,11.43
2017-11-20T00:37:46.781Z,10.60
2017-11-20T00:40:14.282Z,11.23
2017-11-20T00:42:41.757Z,11.23
2017-11-20T00:45:09.256Z,12.90
2017-11-20T00:47:36.733Z,7.83
2017-11-20T00:50:04.994Z,7.20
2017-11-20T00:52:32.481Z,11.27
2017-11-20T00:54:59.977Z,9.43
2017-11-20T00:57:27.457Z,8.93
2017-11-20T00:59:54.961Z,9.40
2017-11-20T01:02:22.440Z,8.33
2017-11-20T01:04:49.937Z,11.30
2017-11-20T01:07:18.181Z,9.60
2017-11-20T01:09:45.682Z,9.07
2017-11-20T01:12:13.291Z,11.00
2017-11-20T01:14:40.785Z,12.93
2017-11-20T01:17:08.265Z,9.63
2017-11-20T01:19:35.765Z,10.20
2017-11-20T01:22:03.235Z,7.03
2017-11-20T01:24:30.718Z,10.73
2017-11-20T01:26:58.989Z,10.30
2017-11-20T01:29:26.464Z,7.33
2017-11-20T01:31:53.960Z,12.67
2017-11-20T01:34:22.205Z,14.20
2017-11-20T01:36:49.714Z,8.40
2017-11-20T01:39:17.961Z,9.50
2017-11-20T01:41:45.457Z,11.90
2017-11-20T01:44:12.936Z,15.00
2017-11-20T01:46:41.196Z,7.80
2017-11-20T01:49:08.676Z,11.63
2017-11-20T01:51:36.169Z,15.10
2017-11-20T01:54:04.409Z,9.77
2017-11-20T01:56:31.913Z,11.63
2017-11-20T01:59:00.166Z,16.93
2017-11-20T02:01:27.676Z,9.10
2017-11-20T02:03:55.918Z,12.03
2017-11-20T02:06:23.413Z,9.20
2017-11-20T02:08:50.899Z,8.47
2017-11-20T02:11:19.176Z,11.23
2017-11-20T02:13:46.662Z,8.90
2017-11-20T02:16:14.947Z,9.00
2017-11-20T02:18:43.185Z,9.77
2017-11-20T02:21:10.693Z,10.97
2017-11-20T02:23:38.164Z,13.00
2017-11-20T02:26:05.657Z,13.93
2017-11-20T02:28:33.896Z,16.03
2017-11-20T02:31:01.397Z,13.27
2017-11-20T02:33:28.872Z,7.90
2017-11-20T02:35:57.136Z,21.00
2017-11-20T02:38:24.615Z,8.97
2017-11-20T02:40:52.116Z,11.77
2017-11-20T02:43:19.600Z,13.30
2017-11-20T02:45:47.108Z,10.70
2017-11-20T02:48:14.588Z,12.03
2017-11-20T02:50:42.099Z,11.57
2017-11-20T02:53:09.574Z,8.13
2017-11-20T02:55:37.064Z,8.10
2017-11-20T02:58:04.544Z,13.20
2017-11-20T03:00:32.041Z,11.70
2017-11-20T03:02:59.533Z,7.53
2017-11-20T03:05:27.049Z,10.93
2017-11-20T03:07:54.531Z,12.13
2017-11-20T03:10:22.037Z,15.50
2017-11-20T03:12:50.314Z,14.20
2017-11-20T03:15:17.800Z,9.23
2017-11-20T03:17:46.037Z,12.20
2017-11-20T03:20:13.538Z,12.90
2017-11-20T03:22:41.026Z,10.00
2017-11-20T03:25:09.293Z,23.80
2017-11-20T03:27:36.770Z,7.67
2017-11-20T03:30:04.303Z,9.30
2017-11-20T03:32:31.801Z,9.23
2017-11-20T03:34:59.277Z,10.47
2017-11-20T03:37:26.773Z,4.70
2017-11-20T03:39:55.013Z,12.70
2017-11-20T03:42:22.517Z,6.33
2017-11-20T03:44:49.988Z,9.57
2017-11-20T03:47:17.478Z,12.83
2017-11-20T03:49:45.720Z,7.60
2017-11-20T03:52:13.213Z,8.67
2017-11-20T03:54:40.685Z,8.87
2017-11-20T03:57:08.180Z,9.03
2017-11-20T03:59:35.673Z,9.13
2017-11-20T04:02:03.172Z,12.23
2017-11-20T04:04:30.644Z,7.70
2017-11-20T04:06:58.139Z,7.70
2017-11-20T04:09:26.395Z,8.00
2017-11-20T04:11:53.886Z,5.70
2017-11-20T04:14:21.360Z,8.23
2017-11-20T04:16:48.869Z,14.50
2017-11-20T04:19:16.348Z,8.20
2017-11-20T04:21:43.843Z,12.43
2017-11-20T04:24:11.320Z,7.83
2017-11-20T04:26:38.822Z,15.00
2017-11-20T04:29:07.059Z,11.70
2017-11-20T04:31:34.556Z,11.07
2017-11-20T04:34:02.049Z,11.80
2017-11-20T04:36:30.308Z,17.47
2017-11-20T04:38:57.792Z,8.73
2017-11-20T04:41:25.289Z,18.90
2017-11-20T04:43:52.768Z,45.80
2017-11-20T04:46:20.273Z,32.43
2017-11-20T04:48:47.748Z,49.90
2017-11-20T04:51:15.241Z,15.73
2017-11-20T04:53:42.720Z,24.57
2017-11-20T04:56:10.985Z,37.33
2017-11-20T04:58:38.474Z,34.70
2017-11-20T05:01:06.740Z,37.43
2017-11-20T05:03:34.252Z,41.00
2017-11-20T05:06:01.773Z,24.50
2017-11-20T05:08:29.254Z,25.60
2017-11-20T05:10:56.763Z,32.17
2017-11-20T05:13:24.242Z,17.47
2017-11-20T05:15:51.741Z,9.83
2017-11-20T05:18:19.224Z,16.83
2017-11-20T05:20:46.721Z,16.37
2017-11-20T05:23:14.978Z,12.27
2017-11-20T05:25:42.484Z,17.53
2017-11-20T05:28:10.728Z,17.00
2017-11-20T05:30:38.229Z,20.33
2017-11-20T05:33:05.708Z,18.77
2017-11-20T05:35:33.978Z,24.50
2017-11-20T05:38:01.453Z,10.53
2017-11-20T05:40:28.965Z,17.20
2017-11-20T05:42:56.448Z,17.53
2017-11-20T05:45:23.930Z,21.00
2017-11-20T05:47:51.429Z,12.73
2017-11-20T05:50:18.913Z,25.77
2017-11-20T05:52:47.181Z,26.00
2017-11-20T05:55:14.660Z,28.17
2017-11-20T05:57:42.159Z,46.83
2017-11-20T06:00:10.401Z,42.30
2017-11-20T06:02:37.901Z,20.80
2017-11-20T06:05:06.144Z,38.20
2017-11-20T06:07:33.647Z,37.73
2017-11-20T06:10:01.138Z,18.80
2017-11-20T06:12:29.401Z,13.50
2017-11-20T06:14:56.877Z,16.20
2017-11-20T06:17:24.377Z,34.97
2017-11-20T06:19:51.861Z,31.43
2017-11-20T06:22:19.389Z,25.43
2017-11-20T06:24:46.885Z,24.47
2017-11-20T06:27:14.405Z,27.27
2017-11-20T06:29:41.933Z,16.73
2017-11-20T06:32:09.428Z,17.33
2017-11-20T06:34:36.913Z,30.33
2017-11-20T06:37:04.418Z,13.47
2017-11-20T06:39:32.674Z,14.27
2017-11-20T06:42:00.191Z,15.77
2017-11-20T06:44:28.441Z,16.17
2017-11-20T06:46:55.951Z,16.60
2017-11-20T06:49:24.213Z,21.37
2017-11-20T06:51:51.730Z,26.30
2017-11-20T06:54:19.228Z,26.47
2017-11-20T06:56:46.750Z,12.30
2017-11-20T06:59:14.996Z,19.90
2017-11-20T07:01:42.494Z,20.40
2017-11-20T07:04:09.978Z,26.73
2017-11-20T07:06:37.605Z,18.40
2017-11-20T07:09:05.110Z,24.57
2017-11-20T07:11:33.408Z,20.73
2017-11-20T07:14:01.649Z,21.37
2017-11-20T07:16:29.161Z,24.70
2017-11-20T07:18:57.416Z,21.60
2017-11-20T07:21:24.917Z,21.43
2017-11-20T07:23:53.174Z,21.37
2017-11-20T07:29:33.178Z,19.70
2017-11-20T07:32:00.690Z,20.10
2017-11-20T07:34:40.021Z,18.43
2017-11-20T07:37:20.009Z,17.23
2017-11-20T07:39:59.301Z,19.43
2017-11-20T07:42:26.807Z,28.67
2017-11-20T07:44:55.076Z,17.53
2017-11-20T07:47:22.592Z,16.30
2017-11-20T07:49:50.089Z,29.90
2017-11-20T07:52:17.588Z,32.93
2017-11-20T07:54:45.080Z,23.47
2017-11-20T07:57:13.352Z,28.40
2017-11-20T07:59:41.629Z,26.30
2017-11-20T08:02:09.141Z,25.37
2017-11-20T08:04:36.625Z,25.73
2017-11-20T08:07:04.134Z,19.13
2017-11-20T08:09:31.616Z,25.43
2017-11-20T08:11:59.117Z,24.87
2017-11-20T08:14:26.613Z,41.97
2017-11-20T08:16:54.142Z,25.83
2017-11-20T08:19:21.676Z,23.63
2017-11-20T08:21:50.145Z,19.53
2017-11-20T08:24:17.650Z,22.53
2017-11-20T08:26:45.155Z,17.93
2017-11-20T08:29:13.441Z,29.63
2017-11-20T08:31:53.957Z,24.53
2017-11-20T08:34:21.464Z,19.50
2017-11-20T08:36:48.954Z,29.30
2017-11-20T08:39:17.233Z,20.57
2017-11-20T08:41:48.526Z,24.50
2017-11-20T08:44:16.036Z,30.00
2017-11-20T08:46:43.531Z,27.33
2017-11-20T08:49:11.046Z,22.47
2017-11-20T08:51:38.536Z,29.63
2017-11-20T08:54:06.049Z,31.20
2017-11-20T08:56:33.546Z,29.47
2017-11-20T08:59:01.058Z,26.77
2017-11-20T09:01:28.553Z,31.07
2017-11-20T09:03:56.825Z,24.57
2017-11-20T09:06:24.313Z,19.10
2017-11-20T09:11:47.772Z,29.60
2017-11-20T09:14:15.273Z,19.77
2017-11-20T09:16:42.762Z,25.53
2017-11-20T09:19:11.070Z,22.23
2017-11-20T09:21:39.304Z,21.87
2017-11-20T09:24:06.804Z,28.43
2017-11-20T09:26:34.295Z,33.10
2017-11-20T09:29:02.572Z,31.70
2017-11-20T09:31:30.824Z,30.97
2017-11-20T09:33:58.330Z,33.30
2017-11-20T09:36:26.588Z,26.80
2017-11-20T09:38:54.093Z,20.57
2017-11-20T09:41:22.340Z,27.40
2017-11-20T09:43:49.847Z,32.03
2017-11-20T09:46:18.100Z,30.30
2017-11-20T09:48:45.601Z,30.67
2017-11-20T09:51:13.090Z,23.87
2017-11-20T09:53:40.597Z,29.07
2017-11-20T09:56:08.082Z,23.57
2017-11-20T09:58:35.589Z,24.37
2017-11-20T10:01:14.949Z,22.90
2017-11-20T10:03:43.216Z,22.70
2017-11-20T10:06:10.881Z,21.80
2017-11-20T10:08:38.384Z,26.70
2017-11-20T10:11:05.882Z,23.70
2017-11-20T10:13:34.153Z,20.53
2017-11-20T10:16:01.672Z,19.73
2017-11-20T10:18:29.182Z,24.37
2017-11-20T10:20:56.673Z,20.83
2017-11-20T10:23:24.161Z,24.17
2017-11-20T10:25:51.660Z,18.80
2017-11-20T10:28:19.149Z,19.17
2017-11-20T10:30:47.426Z,21.20
2017-11-20T10:33:14.913Z,18.93
2017-11-20T10:35:43.197Z,18.13
2017-11-20T10:38:11.481Z,23.73
2017-11-20T10:40:39.754Z,24.57
2017-11-20T10:43:07.241Z,29.03
2017-11-20T10:45:35.552Z,43.00
2017-11-20T10:48:03.032Z,73.73
2017-11-20T10:50:30.537Z,52.30
2017-11-20T10:52:58.028Z,57.87
2017-11-20T10:55:25.529Z,26.53
2017-11-20T10:57:53.027Z,36.17
2017-11-20T11:00:20.528Z,56.07
2017-11-20T11:02:48.013Z,33.00
2017-11-20T11:05:15.523Z,38.40
2017-11-20T11:07:43.024Z,33.87
2017-11-20T11:10:10.533Z,32.03
2017-11-20T11:12:38.776Z,24.23
2017-11-20T11:15:06.272Z,22.83
2017-11-20T11:17:33.758Z,27.20
2017-11-20T11:20:02.033Z,30.07
2017-11-20T11:22:30.298Z,30.80
2017-11-20T11:24:57.885Z,23.70
2017-11-20T11:27:25.427Z,20.83
2017-11-20T11:29:52.914Z,19.20
2017-11-20T11:32:20.425Z,22.63
2017-11-20T11:34:48.700Z,24.70
2017-11-20T11:37:16.218Z,21.63
2017-11-20T11:39:43.705Z,29.30
2017-11-20T11:42:11.222Z,20.83
2017-11-20T11:44:39.481Z,22.83
2017-11-20T11:47:07.004Z,17.30
2017-11-20T11:49:34.496Z,18.70
2017-11-20T11:52:02.005Z,17.33
2017-11-20T11:54:29.496Z,19.27
2017-11-20T11:56:57.788Z,18.83
2017-11-20T11:59:26.041Z,22.27
2017-11-20T12:01:53.556Z,19.40
2017-11-20T12:04:21.049Z,16.13
2017-11-20T12:06:48.565Z,15.77
2017-11-20T12:09:16.057Z,18.03
2017-11-20T12:11:44.325Z,18.40
2017-11-20T12:14:11.817Z,16.57
2017-11-20T12:16:40.084Z,23.07
2017-11-20T12:19:08.344Z,23.80
2017-11-20T12:21:35.850Z,17.37
2017-11-20T12:24:04.109Z,24.57
2017-11-20T12:26:31.635Z,22.83
2017-11-20T12:28:59.126Z,24.80
2017-11-20T12:31:27.383Z,36.90
2017-11-20T12:33:55.654Z,18.53
2017-11-20T12:36:23.909Z,28.00
2017-11-20T12:38:51.420Z,17.17
2017-11-20T12:41:19.677Z,27.80
2017-11-20T12:43:47.181Z,16.73
2017-11-20T12:46:15.432Z,28.83
2017-11-20T12:48:47.189Z,26.67
2017-11-20T12:51:14.685Z,35.50
2017-11-20T12:53:43.165Z,19.90
2017-11-20T12:56:10.656Z,17.10
2017-11-20T12:58:38.937Z,16.50
2017-11-20T13:01:06.433Z,19.50
2017-11-20T13:03:34.710Z,21.53
2017-11-20T13:06:02.962Z,17.97
2017-11-20T13:08:30.470Z,19.07
2017-11-20T13:10:58.762Z,18.70
2017-11-20T13:13:27.037Z,19.20
2017-11-20T13:15:54.522Z,16.10
2017-11-20T13:18:22.792Z,15.23
2017-11-20T13:20:50.283Z,15.73
2017-11-20T13:23:18.571Z,17.00
2017-11-20T13:25:46.825Z,15.20
2017-11-20T13:28:14.333Z,17.87
2017-11-20T13:31:03.088Z,14.30
2017-11-20T13:33:32.574Z,16.83
2017-11-20T13:36:12.496Z,13.80
2017-11-20T13:38:40.001Z,15.33
2017-11-20T13:41:07.481Z,18.10
2017-11-20T13:43:34.973Z,14.40
2017-11-20T13:46:04.481Z,11.80
2017-11-20T13:48:31.976Z,10.77
2017-11-20T13:51:00.221Z,9.77
2017-11-20T13:53:27.725Z,12.83
2017-11-20T13:55:55.202Z,17.93
2017-11-20T13:58:23.476Z,12.30
2017-11-20T14:00:50.952Z,14.17
2017-11-20T14:03:19.216Z,14.63
2017-11-20T14:05:46.705Z,18.00
2017-11-20T14:08:14.190Z,17.83
2017-11-20T14:10:42.465Z,25.50
2017-11-20T14:13:09.945Z,30.27
2017-11-20T14:15:38.213Z,32.50
2017-11-20T14:18:05.701Z,36.30
2017-11-20T14:20:33.986Z,15.27
2017-11-20T14:23:02.254Z,17.50
2017-11-20T14:25:29.770Z,24.27
2017-11-20T14:27:57.252Z,22.70
2017-11-20T14:30:24.748Z,16.73
2017-11-20T14:32:52.252Z,42.23
2017-11-20T14:35:19.761Z,20.30
2017-11-20T14:37:47.247Z,15.00
2017-11-20T14:40:14.754Z,19.60
2017-11-20T14:42:42.314Z,14.83
2017-11-20T14:45:09.822Z,23.87
2017-11-20T14:47:38.074Z,18.80
2017-11-20T14:50:05.594Z,13.83
2017-11-20T14:52:37.931Z,20.67
2017-11-20T14:55:05.476Z,16.90
2017-11-20T14:57:32.965Z,15.10
2017-11-20T15:00:00.495Z,14.33
2017-11-20T15:02:28.000Z,18.90
2017-11-20T15:04:55.502Z,15.27
2017-11-20T15:07:23.757Z,17.70
2017-11-20T15:09:51.284Z,17.53
2017-11-20T15:12:18.820Z,20.20
2017-11-20T15:14:46.326Z,15.33
2017-11-20T15:17:13.809Z,17.93
2017-11-20T15:19:41.321Z,15.97
2017-11-20T15:22:08.819Z,17.40
2017-11-20T15:24:37.101Z,17.53
2017-11-20T15:27:04.590Z,22.73
2017-11-20T15:29:32.924Z,17.93
2017-11-20T15:32:00.432Z,23.03
2017-11-20T15:34:28.706Z,21.73
2017-11-20T15:36:56.184Z,17.00
2017-11-20T15:39:24.464Z,19.73
2017-11-20T15:41:51.951Z,19.30
2017-11-20T15:44:20.249Z,20.43
2017-11-20T15:46:48.510Z,17.33
2017-11-20T15:49:16.021Z,21.23
2017-11-20T15:51:43.775Z,19.80
2017-11-20T15:54:11.312Z,14.73
2017-11-20T15:56:38.794Z,19.50
2017-11-20T15:59:06.329Z,26.07
2017-11-20T16:01:33.837Z,24.43
2017-11-20T16:04:01.348Z,26.30
2017-11-20T16:06:28.849Z,24.97
2017-11-20T16:08:56.328Z,23.37
2017-11-20T16:11:23.829Z,24.13
2017-11-20T16:13:51.316Z,25.93
2017-11-20T16:16:19.581Z,26.90
2017-11-20T16:18:47.065Z,26.40
2017-11-20T16:21:15.337Z,31.20
2017-11-20T16:23:42.820Z,27.50
2017-11-20T16:26:10.317Z,25.97
2017-11-20T16:28:37.801Z,28.97
2017-11-20T16:31:05.313Z,28.67
2017-11-20T16:33:32.801Z,31.57
2017-11-20T16:36:01.076Z,24.77
2017-11-20T16:38:28.556Z,30.47
2017-11-20T16:40:56.076Z,25.13
2017-11-20T16:43:23.565Z,30.97
2017-11-20T16:45:52.058Z,29.23
2017-11-20T16:48:19.549Z,27.17
2017-11-20T16:50:47.064Z,30.20
2017-11-20T16:53:14.545Z,31.10
2017-11-20T16:55:42.070Z,28.37
2017-11-20T16:58:21.378Z,26.50
2017-11-20T17:00:48.921Z,29.23
2017-11-20T17:03:38.003Z,22.90
2017-11-20T17:06:05.512Z,25.47
2017-11-20T17:08:33.002Z,23.73
2017-11-20T17:11:00.513Z,25.60
2017-11-20T17:13:28.029Z,25.10
2017-11-20T17:15:55.516Z,31.43
2017-11-20T17:18:23.020Z,25.43
2017-11-20T17:20:55.852Z,25.90
2017-11-20T17:23:23.371Z,26.70
2017-11-20T17:25:51.623Z,26.07
2017-11-20T17:28:19.129Z,30.90
2017-11-20T17:30:47.385Z,25.67
2017-11-20T17:33:14.890Z,31.60
2017-11-20T17:35:43.145Z,36.87
2017-11-20T17:38:10.645Z,27.20
2017-11-20T17:40:38.895Z,30.43
2017-11-20T17:43:06.413Z,29.53
2017-11-20T17:45:34.665Z,28.60
2017-11-20T17:48:02.182Z,28.10
2017-11-20T17:50:29.679Z,32.17
2017-11-20T17:52:57.191Z,23.93
2017-11-20T17:55:25.439Z,25.53
2017-11-20T17:57:52.949Z,27.30
2017-11-20T18:00:20.432Z,27.93
2017-11-20T18:02:48.758Z,29.37
2017-11-20T18:05:16.259Z,34.73
2017-11-20T18:07:43.780Z,30.77
2017-11-20T18:10:11.278Z,37.40
2017-11-20T18:12:38.774Z,30.60
2017-11-20T18:15:06.295Z,30.63
2017-11-20T18:17:33.792Z,37.50
2017-11-20T18:20:01.296Z,32.07
2017-11-20T18:22:28.786Z,35.13
2017-11-20T18:24:57.062Z,33.57
2017-11-20T18:27:25.312Z,29.40
2017-11-20T18:29:52.824Z,31.03
2017-11-20T18:32:21.073Z,30.70
2017-11-20T18:34:48.582Z,31.97
2017-11-20T18:37:16.842Z,32.13
2017-11-20T18:39:44.352Z,31.50
2017-11-20T18:42:12.597Z,36.10
2017-11-20T18:44:40.110Z,34.10
2017-11-20T18:47:07.614Z,31.83
2017-11-20T18:49:35.128Z,32.43
2017-11-20T18:52:03.393Z,34.77
2017-11-20T18:54:30.901Z,34.97
2017-11-20T18:56:59.156Z,37.17
2017-11-20T18:59:26.661Z,34.00
2017-11-20T19:02:08.889Z,34.00
2017-11-20T19:04:49.092Z,32.20
2017-11-20T19:10:22.194Z,32.83
2017-11-20T19:12:49.682Z,32.37
2017-11-20T19:15:17.230Z,32.80
2017-11-20T19:17:45.494Z,34.40
2017-11-20T19:20:13.002Z,32.13
2017-11-20T19:22:40.497Z,37.20
2017-11-20T19:25:08.045Z,34.77
2017-11-20T19:27:35.536Z,30.93
2017-11-20T19:30:03.066Z,36.03
2017-11-20T19:32:30.582Z,32.90
2017-11-20T19:34:58.092Z,34.13
2017-11-20T19:37:25.579Z,34.20
2017-11-20T19:39:53.832Z,34.90
2017-11-20T19:42:21.404Z,33.80
2017-11-20T19:44:48.885Z,37.37
2017-11-20T19:47:16.394Z,32.10
2017-11-20T19:49:43.883Z,31.30
2017-11-20T19:52:11.400Z,34.63
2017-11-20T19:54:38.902Z,33.50
2017-11-20T19:57:06.414Z,33.50
2017-11-20T19:59:33.911Z,40.07
2017-11-20T20:02:01.446Z,30.13
2017-11-20T20:04:28.945Z,34.90
2017-11-20T20:06:56.453Z,39.80
2017-11-20T20:09:23.955Z,32.60
2017-11-20T20:11:51.457Z,33.00
2017-11-20T20:14:30.738Z,30.53
2017-11-20T20:17:09.867Z,33.20
2017-11-20T20:19:37.354Z,31.03
2017-11-20T20:22:04.871Z,34.30
2017-11-20T20:24:32.350Z,29.93
2017-11-20T20:26:59.853Z,33.17
2017-11-20T20:29:28.109Z,35.03
2017-11-20T20:31:55.632Z,28.10
2017-11-20T20:34:23.890Z,29.90
2017-11-20T20:36:51.389Z,28.20
2017-11-20T20:39:18.869Z,29.93
2017-11-20T20:41:46.377Z,26.90
2017-11-20T20:44:13.861Z,29.07
2017-11-20T20:46:41.357Z,25.63
2017-11-20T20:49:09.611Z,26.20
2017-11-20T20:51:37.115Z,24.20
2017-11-20T20:54:05.361Z,25.90
2017-11-20T20:56:32.869Z,30.20
2017-11-20T20:59:01.120Z,23.63
2017-11-20T21:01:28.621Z,28.60
2017-11-20T21:03:56.868Z,27.40
2017-11-20T21:06:24.371Z,22.90
2017-11-20T21:08:51.852Z,26.43
2017-11-20T21:11:25.842Z,23.60
2017-11-20T21:14:00.012Z,28.50
2017-11-20T21:16:27.526Z,23.47
2017-11-20T21:18:55.009Z,25.70
2017-11-20T21:21:22.514Z,25.23
2017-11-20T21:23:50.774Z,25.87
2017-11-20T21:26:18.272Z,25.87
2017-11-20T21:28:45.760Z,29.23
2017-11-20T21:31:13.245Z,23.93
2017-11-20T21:33:40.745Z,22.50
2017-11-20T21:36:08.233Z,23.50
2017-11-20T21:38:35.741Z,25.40
2017-11-20T21:41:03.234Z,23.57
2017-11-20T21:43:30.738Z,21.73
2017-11-20T21:45:58.225Z,20.87
2017-11-20T21:48:26.493Z,21.43
2017-11-20T21:50:53.972Z,20.73
2017-11-20T21:53:21.469Z,21.17
2017-11-20T21:55:49.729Z,21.20
2017-11-20T21:58:17.228Z,21.37
2017-11-20T22:00:45.478Z,20.83
2017-11-20T22:03:12.972Z,20.40
2017-11-20T22:05:41.226Z,19.73
2017-11-20T22:08:08.732Z,19.57
2017-11-20T22:10:36.973Z,16.40
2017-11-20T22:13:16.337Z,18.60
2017-11-20T22:15:43.821Z,18.93
2017-11-20T22:18:11.334Z,14.47
2017-11-20T22:20:38.813Z,15.07
2017-11-20T22:23:06.318Z,15.20
2017-11-20T22:25:33.804Z,15.27
2017-11-20T22:28:01.308Z,16.17
2017-11-20T22:30:28.792Z,13.57
2017-11-20T22:32:56.292Z,16.90
2017-11-20T22:35:23.777Z,17.20
2017-11-20T22:37:51.285Z,15.50
2017-11-20T22:40:18.778Z,13.30
2017-11-20T22:42:46.281Z,16.73
2017-11-20T22:45:13.785Z,14.83
2017-11-20T22:47:42.053Z,17.77
2017-11-20T22:50:09.541Z,17.00
2017-11-20T22:52:37.810Z,13.53
2017-11-20T22:55:05.302Z,13.37
2017-11-20T22:57:33.573Z,13.53
2017-11-20T23:00:01.059Z,15.87
2017-11-20T23:02:28.584Z,14.27
2017-11-20T23:04:56.070Z,18.43
2017-11-20T23:07:23.574Z,15.37
2017-11-20T23:09:51.825Z,12.87
2017-11-20T23:12:19.330Z,14.53
2017-11-20T23:14:47.601Z,16.20
2017-11-20T23:17:15.111Z,14.40
2017-11-20T23:19:42.599Z,14.23
2017-11-20T23:22:10.104Z,12.60
2017-11-20T23:24:37.592Z,12.20
2017-11-20T23:27:05.855Z,11.77
2017-11-20T23:29:33.344Z,12.53
2017-11-20T23:32:01.613Z,13.03
2017-11-20T23:34:29.100Z,12.87
2017-11-20T23:36:56.608Z,12.93
2017-11-20T23:39:24.075Z,9.70
2017-11-20T23:41:51.600Z,8.40
2017-11-20T23:44:19.088Z,7.80
2017-11-20T23:46:47.329Z,6.93
2017-11-20T23:49:14.822Z,6.30
2017-11-20T23:51:42.298Z,5.20
2017-11-20T23:54:09.796Z,4.17
2017-11-20T23:56:38.029Z,3.70
2017-11-20T23:59:05.529Z,3.43
